createdAt,value
2019-04-01T00:01:07.663Z,1.37
2019-04-01T00:03:36.647Z,1.10
2019-04-01T00:06:05.459Z,1.57
2019-04-01T00:08:34.261Z,0.90
2019-04-01T00:11:03.172Z,0.90
2019-04-01T00:13:31.906Z,1.03
2019-04-01T00:16:00.636Z,1.30
2019-04-01T00:18:29.478Z,1.33
2019-04-01T00:20:58.286Z,1.30
2019-04-01T00:23:27.089Z,1.10
2019-04-01T00:25:55.903Z,1.17
2019-04-01T00:28:24.703Z,1.00
2019-04-01T00:30:53.499Z,0.60
2019-04-01T00:33:22.277Z,1.00
2019-04-01T00:35:51.015Z,1.30
2019-04-01T00:38:19.804Z,1.07
2019-04-01T00:40:48.632Z,1.40
2019-04-01T00:43:25.215Z,1.50
2019-04-01T00:45:55.611Z,1.37
2019-04-01T00:48:24.411Z,1.03
2019-04-01T00:50:53.142Z,1.00
2019-04-01T00:53:21.990Z,1.07
2019-04-01T00:55:50.740Z,1.07
2019-04-01T00:58:19.543Z,1.50
2019-04-01T01:00:48.387Z,0.83
2019-04-01T01:03:17.187Z,2.20
2019-04-01T01:05:45.924Z,1.10
2019-04-01T01:08:14.675Z,1.13
2019-04-01T01:10:43.501Z,1.40
2019-04-01T01:13:12.299Z,1.13
2019-04-01T01:15:41.103Z,2.13
2019-04-01T01:18:09.945Z,0.90
2019-04-01T01:20:38.743Z,1.53
2019-04-01T01:23:07.652Z,1.00
2019-04-01T01:25:36.425Z,1.23
2019-04-01T01:28:05.151Z,1.77
2019-04-01T01:30:33.881Z,0.70
2019-04-01T01:33:02.720Z,1.43
2019-04-01T01:35:32.123Z,1.23
2019-04-01T01:38:00.927Z,0.87
2019-04-01T01:40:29.747Z,1.83
2019-04-01T01:42:58.611Z,1.00
2019-04-01T01:45:27.419Z,1.83
2019-04-01T01:47:56.254Z,0.93
2019-04-01T01:50:25.054Z,1.57
2019-04-01T01:52:54.067Z,1.40
2019-04-01T01:55:22.893Z,1.53
2019-04-01T01:57:51.692Z,1.37
2019-04-01T02:00:20.987Z,1.47
2019-04-01T02:02:49.790Z,1.87
2019-04-01T02:05:18.538Z,1.53
2019-04-01T02:07:47.271Z,1.00
2019-04-01T02:10:16.250Z,1.43
2019-04-01T02:12:44.986Z,1.20
2019-04-01T02:15:13.796Z,1.60
2019-04-01T02:17:42.555Z,1.30
2019-04-01T02:20:11.360Z,1.07
2019-04-01T02:22:40.185Z,1.57
2019-04-01T02:25:09.120Z,1.57
2019-04-01T02:27:37.908Z,1.07
2019-04-01T02:30:06.839Z,1.37
2019-04-01T02:32:35.568Z,1.53
2019-04-01T02:35:05.018Z,1.37
2019-04-01T02:37:33.847Z,1.00
2019-04-01T02:40:02.655Z,2.43
2019-04-01T02:42:32.806Z,1.70
2019-04-01T02:45:01.562Z,1.60
2019-04-01T02:47:30.398Z,1.13
2019-04-01T02:49:59.120Z,1.17
2019-04-01T02:52:27.896Z,2.10
2019-04-01T02:54:56.693Z,2.13
2019-04-01T02:57:25.494Z,1.77
2019-04-01T02:59:54.344Z,1.63
2019-04-01T03:02:23.123Z,1.50
2019-04-01T03:04:51.886Z,2.20
2019-04-01T03:07:20.676Z,1.30
2019-04-01T03:09:49.591Z,1.07
2019-04-01T03:12:18.411Z,1.40
2019-04-01T03:14:47.269Z,1.30
2019-04-01T03:17:16.077Z,1.27
2019-04-01T03:19:44.943Z,1.53
2019-04-01T03:22:13.708Z,1.23
2019-04-01T03:24:42.520Z,1.50
2019-04-01T03:27:11.341Z,1.77
2019-04-01T03:29:40.079Z,1.70
2019-04-01T03:32:08.891Z,1.27
2019-04-01T03:34:37.719Z,1.30
2019-04-01T03:37:06.507Z,1.10
2019-04-01T03:39:35.314Z,1.30
2019-04-01T03:42:04.145Z,2.07
2019-04-01T03:44:32.952Z,1.70
2019-04-01T03:47:01.855Z,1.50
2019-04-01T03:49:30.701Z,1.17
2019-04-01T03:51:59.493Z,1.47
2019-04-01T03:54:28.484Z,1.10
2019-04-01T03:56:57.318Z,1.53
2019-04-01T03:59:26.195Z,1.20
2019-04-01T04:01:55.190Z,1.63
2019-04-01T04:04:24.020Z,1.37
2019-04-01T04:06:52.801Z,1.20
2019-04-01T04:09:21.551Z,2.00
2019-04-01T04:11:50.484Z,1.20
2019-04-01T04:14:19.283Z,1.50
2019-04-01T04:16:48.083Z,2.10
2019-04-01T04:19:17.014Z,1.77
2019-04-01T04:21:45.744Z,1.40
2019-04-01T04:24:14.545Z,2.37
2019-04-01T04:26:43.401Z,1.27
2019-04-01T04:29:12.209Z,2.13
2019-04-01T04:31:40.999Z,1.50
2019-04-01T04:34:09.839Z,0.77
2019-04-01T04:36:38.649Z,1.30
2019-04-01T04:39:07.436Z,1.10
2019-04-01T04:41:36.307Z,1.73
2019-04-01T04:44:05.040Z,1.80
2019-04-01T04:46:33.861Z,1.43
2019-04-01T04:49:02.676Z,1.10
2019-04-01T04:51:31.503Z,1.30
2019-04-01T04:54:00.310Z,1.10
2019-04-01T04:56:29.047Z,1.50
2019-04-01T04:58:57.927Z,1.87
2019-04-01T05:01:26.723Z,1.70
2019-04-01T05:03:55.531Z,1.60
2019-04-01T05:06:24.371Z,1.67
2019-04-01T05:08:53.165Z,1.30
2019-04-01T05:11:22.063Z,1.50
2019-04-01T05:13:52.803Z,1.57
2019-04-01T05:16:21.363Z,1.57
2019-04-01T05:18:50.170Z,1.60
2019-04-01T05:21:19.399Z,1.13
2019-04-01T05:23:48.535Z,1.67
2019-04-01T05:26:19.039Z,2.00
2019-04-01T05:28:48.867Z,1.30
2019-04-01T05:31:20.239Z,2.27
2019-04-01T05:33:55.714Z,1.40
2019-04-01T05:36:24.182Z,1.30
2019-04-01T05:38:52.932Z,1.70
2019-04-01T05:41:21.721Z,2.63
2019-04-01T05:43:50.852Z,1.53
2019-04-01T05:46:19.643Z,1.63
2019-04-01T05:48:48.655Z,1.43
2019-04-01T05:51:17.524Z,1.93
2019-04-01T05:53:46.883Z,1.30
2019-04-01T05:56:15.691Z,1.53
2019-04-01T05:58:44.516Z,1.87
2019-04-01T06:01:14.897Z,1.97
2019-04-01T06:03:43.676Z,1.37
2019-04-01T06:06:12.511Z,1.53
2019-04-01T06:08:41.559Z,1.93
2019-04-01T06:11:10.387Z,1.27
2019-04-01T06:13:39.284Z,1.70
2019-04-01T06:16:08.130Z,1.43
2019-04-01T06:18:37.064Z,1.40
2019-04-01T06:21:06.087Z,1.47
2019-04-01T06:23:34.891Z,1.23
2019-04-01T06:26:03.737Z,2.00
2019-04-01T06:28:32.558Z,2.67
2019-04-01T06:31:01.374Z,2.83
2019-04-01T06:33:30.465Z,1.83
2019-04-01T06:35:59.303Z,1.70
2019-04-01T06:38:28.235Z,1.73
2019-04-01T06:40:57.642Z,1.93
2019-04-01T06:43:26.472Z,1.97
2019-04-01T06:45:55.277Z,2.40
2019-04-01T06:48:24.076Z,2.00
2019-04-01T06:50:53.348Z,1.43
2019-04-01T06:53:22.160Z,2.17
2019-04-01T06:55:50.987Z,2.40
2019-04-01T06:58:19.815Z,2.73
2019-04-01T07:00:48.721Z,1.57
2019-04-01T07:03:18.802Z,2.80
2019-04-01T07:05:47.972Z,1.90
2019-04-01T07:08:16.772Z,2.30
2019-04-01T07:10:45.580Z,2.40
2019-04-01T07:13:14.385Z,2.37
2019-04-01T07:15:43.122Z,2.33
2019-04-01T07:18:11.932Z,2.80
2019-04-01T07:20:40.960Z,2.47
2019-04-01T07:23:09.743Z,2.93
2019-04-01T07:25:38.546Z,3.43
2019-04-01T07:28:07.377Z,2.23
2019-04-01T07:30:36.379Z,2.57
2019-04-01T07:33:05.181Z,1.73
2019-04-01T07:35:34.006Z,2.77
2019-04-01T07:38:02.838Z,2.20
2019-04-01T07:40:31.639Z,2.80
2019-04-01T07:43:00.373Z,2.67
2019-04-01T07:45:29.200Z,1.67
2019-04-01T07:47:57.987Z,3.10
2019-04-01T07:50:26.789Z,2.47
2019-04-01T07:52:55.834Z,2.97
2019-04-01T07:55:24.702Z,1.50
2019-04-01T07:57:54.563Z,2.30
2019-04-01T08:00:23.399Z,2.30
2019-04-01T08:02:52.200Z,2.67
2019-04-01T08:05:21.047Z,3.20
2019-04-01T08:07:50.184Z,2.97
2019-04-01T08:10:19.188Z,2.23
2019-04-01T08:12:48.001Z,2.87
2019-04-01T08:15:16.856Z,2.23
2019-04-01T08:17:45.689Z,2.03
2019-04-01T08:20:15.293Z,2.40
2019-04-01T08:22:44.134Z,2.20
2019-04-01T08:25:13.071Z,1.97
2019-04-01T08:27:41.873Z,2.27
2019-04-01T08:30:11.012Z,2.40
2019-04-01T08:32:39.828Z,2.63
2019-04-01T08:35:08.834Z,2.50
2019-04-01T08:37:40.214Z,2.20
2019-04-01T08:40:08.765Z,2.50
2019-04-01T08:42:37.721Z,2.67
2019-04-01T08:45:10.424Z,2.37
2019-04-01T08:47:39.162Z,1.97
2019-04-01T08:50:08.581Z,2.33
2019-04-01T08:52:37.419Z,2.07
2019-04-01T08:55:07.324Z,2.27
2019-04-01T08:57:36.128Z,2.23
2019-04-01T09:00:06.765Z,3.03
2019-04-01T09:02:35.859Z,1.87
2019-04-01T09:05:05.588Z,2.70
2019-04-01T09:07:34.350Z,2.83
2019-04-01T09:10:03.550Z,1.40
2019-04-01T09:12:32.346Z,1.30
2019-04-01T09:15:01.779Z,2.70
2019-04-01T09:17:30.572Z,2.07
2019-04-01T09:19:59.409Z,2.47
2019-04-01T09:22:28.220Z,2.30
2019-04-01T09:24:57.036Z,1.97
2019-04-01T09:27:25.851Z,1.53
2019-04-01T09:29:54.708Z,2.53
2019-04-01T09:32:23.527Z,1.47
2019-04-01T09:34:52.335Z,2.53
2019-04-01T09:37:21.146Z,2.00
2019-04-01T09:39:49.911Z,1.90
2019-04-01T09:42:18.779Z,1.90
2019-04-01T09:44:47.748Z,2.10
2019-04-01T09:47:16.590Z,1.60
2019-04-01T09:49:45.379Z,1.60
2019-04-01T09:52:14.205Z,2.23
2019-04-01T09:54:43.058Z,1.80
2019-04-01T09:57:17.886Z,2.33
2019-04-01T09:59:42.283Z,3.10
2019-04-01T10:02:11.106Z,1.97
2019-04-01T10:04:39.970Z,2.17
2019-04-01T10:07:08.775Z,2.17
2019-04-01T10:09:37.599Z,1.87
2019-04-01T10:12:06.463Z,2.03
2019-04-01T10:14:35.265Z,2.10
2019-04-01T10:17:04.144Z,2.00
2019-04-01T10:19:32.955Z,2.30
2019-04-01T10:22:01.799Z,2.33
2019-04-01T10:24:30.619Z,1.60
2019-04-01T10:26:59.423Z,3.20
2019-04-01T10:29:28.232Z,2.00
2019-04-01T10:31:57.077Z,2.00
2019-04-01T10:34:25.887Z,1.70
2019-04-01T10:36:54.676Z,2.20
2019-04-01T10:39:23.469Z,2.20
2019-04-01T10:41:52.279Z,2.73
2019-04-01T10:44:21.079Z,2.73
2019-04-01T10:46:49.931Z,2.30
2019-04-01T10:49:18.640Z,1.93
2019-04-01T10:51:47.407Z,3.07
2019-04-01T10:54:16.211Z,2.00
2019-04-01T10:56:44.977Z,2.27
2019-04-01T10:59:13.811Z,2.00
2019-04-01T11:01:42.745Z,2.37
2019-04-01T11:04:11.585Z,2.67
2019-04-01T11:06:40.347Z,2.17
2019-04-01T11:09:11.183Z,2.23
2019-04-01T11:11:40.002Z,2.47
2019-04-01T11:14:08.803Z,2.73
2019-04-01T11:16:37.654Z,1.93
2019-04-01T11:19:06.481Z,2.70
2019-04-01T11:21:35.288Z,1.87
2019-04-01T11:24:07.493Z,2.33
2019-04-01T11:26:36.641Z,1.87
2019-04-01T11:29:05.327Z,1.97
2019-04-01T11:31:34.275Z,2.07
2019-04-01T11:34:03.194Z,1.67
2019-04-01T11:36:31.931Z,1.80
2019-04-01T11:39:00.759Z,1.93
2019-04-01T11:41:29.619Z,2.43
2019-04-01T11:43:58.311Z,2.03
2019-04-01T11:46:27.151Z,2.30
2019-04-01T11:48:55.992Z,2.53
2019-04-01T11:51:32.467Z,2.23
2019-04-01T11:53:55.325Z,2.17
2019-04-01T11:56:26.512Z,1.87
2019-04-01T11:58:56.714Z,2.20
2019-04-01T12:01:25.191Z,1.77
2019-04-01T12:03:53.927Z,1.60
2019-04-01T12:06:22.758Z,1.33
2019-04-01T12:08:51.587Z,1.90
2019-04-01T12:11:20.392Z,1.97
2019-04-01T12:13:49.190Z,1.20
2019-04-01T12:16:18.044Z,1.47
2019-04-01T12:18:46.840Z,1.37
2019-04-01T12:21:15.647Z,1.37
2019-04-01T12:23:44.530Z,2.30
2019-04-01T12:26:15.341Z,1.80
2019-04-01T12:28:44.149Z,1.70
2019-04-01T12:31:13.259Z,1.47
2019-04-01T12:33:42.131Z,1.40
2019-04-01T12:36:11.758Z,1.60
2019-04-01T12:38:40.881Z,2.07
2019-04-01T12:41:09.636Z,1.33
2019-04-01T12:43:38.479Z,1.60
2019-04-01T12:46:07.391Z,1.83
2019-04-01T12:48:36.271Z,2.47
2019-04-01T12:51:05.478Z,2.07
2019-04-01T12:53:34.282Z,2.70
2019-04-01T12:56:03.124Z,2.27
2019-04-01T12:58:31.967Z,2.00
2019-04-01T13:01:01.192Z,2.17
2019-04-01T13:03:30.202Z,3.20
2019-04-01T13:05:59.020Z,2.40
2019-04-01T13:08:27.814Z,2.37
2019-04-01T13:10:56.838Z,2.83
2019-04-01T13:13:25.674Z,2.63
2019-04-01T13:15:54.469Z,2.70
2019-04-01T13:18:23.310Z,2.20
2019-04-01T13:20:52.278Z,3.90
2019-04-01T13:23:21.143Z,3.40
2019-04-01T13:25:49.979Z,3.37
2019-04-01T13:28:19.745Z,3.37
2019-04-01T13:30:48.500Z,3.57
2019-04-01T13:33:17.432Z,3.37
2019-04-01T13:35:46.273Z,3.60
2019-04-01T13:38:15.287Z,3.73
2019-04-01T13:40:47.430Z,4.03
2019-04-01T13:43:17.042Z,4.43
2019-04-01T13:45:45.913Z,4.17
2019-04-01T13:48:14.756Z,4.57
2019-04-01T13:50:43.535Z,4.07
2019-04-01T13:53:12.332Z,4.20
2019-04-01T13:55:41.169Z,3.27
2019-04-01T13:58:10.897Z,4.43
2019-04-01T14:00:39.794Z,4.27
2019-04-01T14:03:11.548Z,4.10
2019-04-01T14:05:40.471Z,5.30
2019-04-01T14:08:09.401Z,4.03
2019-04-01T14:10:40.515Z,3.80
2019-04-01T14:13:08.692Z,4.60
2019-04-01T14:15:37.508Z,3.53
2019-04-01T14:18:06.346Z,3.53
2019-04-01T14:20:35.150Z,3.40
2019-04-01T14:23:04.045Z,2.73
2019-04-01T14:25:34.811Z,2.70
2019-04-01T14:28:03.338Z,2.00
2019-04-01T14:30:32.140Z,2.70
2019-04-01T14:33:01.002Z,3.10
2019-04-01T14:35:29.785Z,2.60
2019-04-01T14:37:59.691Z,2.80
2019-04-01T14:40:28.552Z,2.50
2019-04-01T14:42:57.347Z,2.60
2019-04-01T14:45:26.153Z,2.30
2019-04-01T14:47:57.561Z,3.20
2019-04-01T14:50:25.370Z,2.73
2019-04-01T14:52:54.174Z,2.17
2019-04-01T14:55:23.018Z,3.73
2019-04-01T14:57:51.751Z,3.03
2019-04-01T15:00:20.963Z,2.47
2019-04-01T15:02:49.794Z,4.33
2019-04-01T15:05:18.700Z,1.93
2019-04-01T15:07:47.512Z,3.63
2019-04-01T15:10:16.527Z,3.17
2019-04-01T15:12:45.275Z,2.77
2019-04-01T15:15:14.460Z,3.47
2019-04-01T15:17:43.306Z,3.67
2019-04-01T15:20:12.326Z,5.53
2019-04-01T15:22:41.205Z,4.10
2019-04-01T15:25:10.139Z,2.77
2019-04-01T15:27:38.951Z,3.33
2019-04-01T15:30:09.159Z,2.83
2019-04-01T15:32:38.005Z,2.33
2019-04-01T15:35:08.029Z,3.57
2019-04-01T15:37:36.836Z,4.00
2019-04-01T15:40:07.321Z,2.93
2019-04-01T15:42:36.083Z,4.77
2019-04-01T15:45:06.407Z,4.83
2019-04-01T15:47:35.642Z,3.03
2019-04-01T15:50:06.465Z,4.27
2019-04-01T15:52:35.225Z,4.60
2019-04-01T15:55:05.663Z,4.07
2019-04-01T15:57:34.479Z,4.20
2019-04-01T16:00:03.705Z,3.87
2019-04-01T16:02:32.544Z,3.73
2019-04-01T16:05:01.332Z,4.30
2019-04-01T16:07:30.139Z,3.93
2019-04-01T16:09:58.928Z,5.00
2019-04-01T16:12:27.736Z,4.50
2019-04-01T16:14:56.540Z,3.00
2019-04-01T16:17:25.403Z,4.53
2019-04-01T16:19:54.208Z,3.50
2019-04-01T16:22:23.026Z,4.40
2019-04-01T16:24:51.784Z,4.10
2019-04-01T16:27:20.601Z,4.03
2019-04-01T16:29:49.415Z,4.73
2019-04-01T16:32:18.264Z,4.33
2019-04-01T16:34:47.078Z,3.40
2019-04-01T16:37:15.869Z,3.97
2019-04-01T16:39:48.706Z,3.80
2019-04-01T16:42:19.474Z,3.67
2019-04-01T16:44:53.879Z,4.60
2019-04-01T16:47:21.837Z,3.27
2019-04-01T16:49:52.473Z,4.77
2019-04-01T16:52:26.232Z,2.77
2019-04-01T16:55:03.977Z,3.97
2019-04-01T16:57:35.894Z,3.70
2019-04-01T17:00:14.331Z,4.33
2019-04-01T17:02:43.025Z,4.10
2019-04-01T17:05:12.604Z,2.73
2019-04-01T17:07:42.761Z,3.10
2019-04-01T17:10:14.641Z,3.07
2019-04-01T17:12:45.759Z,4.00
2019-04-01T17:15:17.727Z,3.77
2019-04-01T17:17:50.423Z,4.40
2019-04-01T17:20:21.102Z,3.10
2019-04-01T17:22:51.641Z,4.37
2019-04-01T17:25:21.172Z,4.27
2019-04-01T17:27:54.742Z,3.93
2019-04-01T17:30:25.106Z,3.27
2019-04-01T17:32:54.299Z,4.03
2019-04-01T17:35:23.532Z,4.90
2019-04-01T17:37:55.246Z,3.90
2019-04-01T17:40:25.464Z,3.43
2019-04-01T17:42:57.580Z,3.63
2019-04-01T17:45:32.973Z,4.17
2019-04-01T17:48:05.146Z,3.33
2019-04-01T17:50:36.214Z,3.03
2019-04-01T17:53:09.699Z,4.47
2019-04-01T17:55:40.550Z,4.03
2019-04-01T17:58:10.433Z,4.53
2019-04-01T18:00:49.956Z,3.40
2019-04-01T18:03:19.293Z,4.43
2019-04-01T18:05:48.080Z,4.00
2019-04-01T18:08:16.855Z,4.83
2019-04-01T18:10:48.634Z,3.60
2019-04-01T18:13:16.121Z,4.63
2019-04-01T18:15:45.232Z,4.60
2019-04-01T18:18:26.116Z,3.40
2019-04-01T18:20:44.446Z,4.50
2019-04-01T18:23:13.316Z,3.73
2019-04-01T18:25:42.115Z,5.77
2019-04-01T18:28:10.959Z,6.17
2019-04-01T18:30:39.688Z,4.97
2019-04-01T18:33:08.455Z,5.07
2019-04-01T18:35:37.260Z,4.73
2019-04-01T18:38:06.109Z,4.77
2019-04-01T18:40:35.867Z,4.97
2019-04-01T18:43:04.821Z,3.80
2019-04-01T18:45:33.651Z,4.40
2019-04-01T18:48:02.462Z,4.13
2019-04-01T18:50:31.259Z,4.33
2019-04-01T18:53:00.096Z,4.57
2019-04-01T18:55:28.906Z,5.50
2019-04-01T18:57:57.699Z,5.50
2019-04-01T19:00:26.560Z,6.50
2019-04-01T19:02:55.790Z,4.43
2019-04-01T19:05:24.966Z,5.90
2019-04-01T19:07:53.792Z,5.23
2019-04-01T19:10:22.636Z,4.47
2019-04-01T19:13:04.687Z,5.10
2019-04-01T19:15:22.188Z,4.63
2019-04-01T19:17:51.629Z,4.67
2019-04-01T19:20:20.577Z,4.97
2019-04-01T19:22:49.403Z,5.20
2019-04-01T19:25:18.206Z,4.10
2019-04-01T19:27:47.007Z,4.57
2019-04-01T19:30:16.542Z,4.83
2019-04-01T19:32:45.340Z,4.30
2019-04-01T19:35:14.343Z,4.30
2019-04-01T19:37:43.116Z,5.17
2019-04-01T19:40:12.160Z,4.93
2019-04-01T19:42:41.001Z,5.63
2019-04-01T19:45:12.365Z,5.87
2019-04-01T19:47:41.204Z,5.80
2019-04-01T19:50:10.608Z,4.63
2019-04-01T19:52:39.415Z,4.37
2019-04-01T19:55:09.117Z,5.93
2019-04-01T19:57:37.920Z,5.03
2019-04-01T20:00:08.043Z,4.57
2019-04-01T20:02:36.853Z,5.33
2019-04-01T20:05:07.788Z,4.43
2019-04-01T20:07:36.628Z,4.97
2019-04-01T20:10:07.156Z,6.70
2019-04-01T20:12:37.680Z,5.80
2019-04-01T20:15:10.814Z,6.07
2019-04-01T20:17:39.952Z,7.43
2019-04-01T20:20:09.085Z,7.50
2019-04-01T20:22:37.915Z,8.83
2019-04-01T20:25:08.104Z,8.33
2019-04-01T20:27:36.883Z,9.03
2019-04-01T20:30:09.369Z,8.90
2019-04-01T20:32:38.596Z,9.70
2019-04-01T20:35:22.371Z,7.90
2019-04-01T20:37:39.652Z,11.23
2019-04-01T20:40:09.796Z,9.23
2019-04-01T20:42:38.607Z,9.20
2019-04-01T20:45:10.976Z,10.90
2019-04-01T20:47:39.387Z,10.53
2019-04-01T20:50:10.299Z,11.87
2019-04-01T20:52:39.141Z,10.17
2019-04-01T20:55:08.241Z,9.70
2019-04-01T20:57:37.251Z,10.53
2019-04-01T21:00:09.566Z,11.20
2019-04-01T21:02:38.677Z,11.43
2019-04-01T21:05:08.627Z,9.77
2019-04-01T21:07:38.127Z,11.63
2019-04-01T21:10:10.512Z,10.10
2019-04-01T21:12:39.247Z,9.67
2019-04-01T21:15:08.527Z,8.23
2019-04-01T21:17:37.337Z,10.43
2019-04-01T21:20:07.446Z,8.40
2019-04-01T21:22:36.887Z,8.47
2019-04-01T21:25:06.998Z,9.60
2019-04-01T21:27:35.802Z,9.23
2019-04-01T21:30:08.252Z,8.07
2019-04-01T21:32:38.089Z,8.27
2019-04-01T21:35:07.087Z,8.77
2019-04-01T21:37:35.911Z,7.70
2019-04-01T21:40:06.963Z,8.17
2019-04-01T21:42:35.696Z,6.43
2019-04-01T21:45:09.301Z,6.50
2019-04-01T21:47:38.163Z,7.10
2019-04-01T21:50:08.360Z,8.23
2019-04-01T21:52:37.165Z,7.47
2019-04-01T21:55:08.285Z,7.63
2019-04-01T21:57:37.342Z,6.93
2019-04-01T22:00:10.731Z,7.30
2019-04-01T22:02:39.564Z,7.10
2019-04-01T22:05:10.195Z,8.17
2019-04-01T22:07:38.955Z,7.17
2019-04-01T22:10:07.892Z,7.77
2019-04-01T22:12:36.708Z,7.13
2019-04-01T22:15:06.539Z,7.30
2019-04-01T22:17:35.300Z,6.80
2019-04-01T22:20:06.012Z,7.43
2019-04-01T22:22:34.766Z,8.20
2019-04-01T22:25:04.597Z,8.03
2019-04-01T22:27:33.400Z,7.40
2019-04-01T22:30:02.217Z,6.87
2019-04-01T22:32:31.055Z,5.20
2019-04-01T22:34:59.855Z,7.83
2019-04-01T22:37:28.584Z,8.20
2019-04-01T22:39:57.339Z,7.17
2019-04-01T22:42:27.057Z,5.77
2019-04-01T22:44:55.987Z,5.83
2019-04-01T22:47:24.832Z,6.93
2019-04-01T22:49:55.039Z,6.93
2019-04-01T22:52:23.843Z,7.90
2019-04-01T22:54:52.681Z,7.43
2019-04-01T22:57:21.416Z,8.00
2019-04-01T22:59:50.219Z,8.93
2019-04-01T23:02:19.058Z,8.23
2019-04-01T23:04:47.845Z,7.63
2019-04-01T23:07:16.664Z,8.13
2019-04-01T23:09:45.497Z,7.73
2019-04-01T23:12:14.299Z,7.23
2019-04-01T23:14:43.099Z,7.30
2019-04-01T23:17:11.951Z,7.00
2019-04-01T23:19:40.700Z,6.77
2019-04-01T23:22:09.499Z,7.97
2019-04-01T23:24:38.340Z,6.97
2019-04-01T23:27:07.184Z,8.20
2019-04-01T23:29:35.987Z,7.33
2019-04-01T23:32:04.819Z,6.23
2019-04-01T23:34:33.623Z,7.60
2019-04-01T23:37:02.431Z,7.90
2019-04-01T23:39:31.292Z,7.07
2019-04-01T23:42:00.182Z,8.27
2019-04-01T23:44:28.987Z,6.97
2019-04-01T23:46:57.820Z,7.27
2019-04-01T23:49:26.623Z,7.00
2019-04-01T23:51:55.360Z,7.53
2019-04-01T23:54:24.223Z,7.47
2019-04-01T23:56:53.029Z,7.27
2019-04-01T23:59:21.826Z,6.30
